sensor_id;sensor_type;location;lat;lon;timestamp;temperature;humidity
18934;DHT22;9599;53.706;10.384;2023-04-01T00:00:47;11.40;99.90
18934;DHT22;9599;53.706;10.384;2023-04-01T00:03:15;11.40;99.90
18934;DHT22;9599;53.706;10.384;2023-04-01T00:05:44;11.40;99.90
18934;DHT22;9599;53.706;10.384;2023-04-01T00:08:13;11.40;99.90
18934;DHT22;9599;53.706;10.384;2023-04-01T00:10:41;11.40;99.90
18934;DHT22;9599;53.706;10.384;2023-04-01T00:13:09;11.40;99.90
18934;DHT22;9599;53.706;10.384;2023-04-01T00:15:40;11.50;99.90
18934;DHT22;9599;53.706;10.384;2023-04-01T00:18:08;11.50;99.90
18934;DHT22;9599;53.706;10.384;2023-04-01T00:20:36;11.40;99.90
18934;DHT22;9599;53.706;10.384;2023-04-01T00:23:04;11.40;99.90
18934;DHT22;9599;53.706;10.384;2023-04-01T00:25:32;11.40;99.90
18934;DHT22;9599;53.706;10.384;2023-04-01T00:28:01;11.40;99.90
18934;DHT22;9599;53.706;10.384;2023-04-01T00:30:29;11.40;99.90
18934;DHT22;9599;53.706;10.384;2023-04-01T00:32:58;11.30;99.90
18934;DHT22;9599;53.706;10.384;2023-04-01T00:35:26;11.40;99.90
18934;DHT22;9599;53.706;10.384;2023-04-01T00:37:54;11.30;99.90
18934;DHT22;9599;53.706;10.384;2023-04-01T00:40:26;11.30;99.90
18934;DHT22;9599;53.706;10.384;2023-04-01T00:42:54;11.30;99.90
18934;DHT22;9599;53.706;10.384;2023-04-01T00:45:29;11.30;99.90
18934;DHT22;9599;53.706;10.384;2023-04-01T00:48:04;11.30;99.90
18934;DHT22;9599;53.706;10.384;2023-04-01T00:50:34;11.30;99.90
18934;DHT22;9599;53.706;10.384;2023-04-01T00:53:03;11.30;99.90
18934;DHT22;9599;53.706;10.384;2023-04-01T00:55:36;11.30;99.90
18934;DHT22;9599;53.706;10.384;2023-04-01T00:58:08;11.30;99.90
18934;DHT22;9599;53.706;10.384;2023-04-01T01:00:37;11.30;99.90
18934;DHT22;9599;53.706;10.384;2023-04-01T01:03:07;11.30;99.90
18934;DHT22;9599;53.706;10.384;2023-04-01T01:05:57;11.30;99.90
18934;DHT22;9599;53.706;10.384;2023-04-01T01:08:35;11.30;99.90
18934;DHT22;9599;53.706;10.384;2023-04-01T01:11:08;11.30;99.90
18934;DHT22;9599;53.706;10.384;2023-04-01T01:13:43;11.30;99.90
18934;DHT22;9599;53.706;10.384;2023-04-01T01:16:17;11.30;99.90
18934;DHT22;9599;53.706;10.384;2023-04-01T01:18:52;11.30;99.90
18934;DHT22;9599;53.706;10.384;2023-04-01T01:21:33;11.30;99.90
18934;DHT22;9599;53.706;10.384;2023-04-01T01:24:30;11.30;99.90
18934;DHT22;9599;53.706;10.384;2023-04-01T01:27:06;11.30;99.90
18934;DHT22;9599;53.706;10.384;2023-04-01T01:30:02;11.30;99.90
18934;DHT22;9599;53.706;10.384;2023-04-01T01:32:43;11.30;99.90
18934;DHT22;9599;53.706;10.384;2023-04-01T01:35:22;11.30;99.90
18934;DHT22;9599;53.706;10.384;2023-04-01T01:37:54;11.30;99.90
18934;DHT22;9599;53.706;10.384;2023-04-01T01:40:24;11.30;99.90
18934;DHT22;9599;53.706;10.384;2023-04-01T01:42:56;11.30;99.90
18934;DHT22;9599;53.706;10.384;2023-04-01T01:45:27;11.30;99.90
18934;DHT22;9599;53.706;10.384;2023-04-01T01:47:56;11.30;99.90
18934;DHT22;9599;53.706;10.384;2023-04-01T01:50:27;11.30;99.90
18934;DHT22;9599;53.706;10.384;2023-04-01T01:53:06;11.30;99.90
18934;DHT22;9599;53.706;10.384;2023-04-01T01:55:38;11.30;99.90
18934;DHT22;9599;53.706;10.384;2023-04-01T01:58:13;11.30;99.90
18934;DHT22;9599;53.706;10.384;2023-04-01T02:00:43;11.30;99.90
18934;DHT22;9599;53.706;10.384;2023-04-01T02:03:15;11.30;99.90
18934;DHT22;9599;53.706;10.384;2023-04-01T02:05:46;11.30;99.90
18934;DHT22;9599;53.706;10.384;2023-04-01T02:08:17;11.30;99.90
18934;DHT22;9599;53.706;10.384;2023-04-01T02:10:55;11.30;99.90
18934;DHT22;9599;53.706;10.384;2023-04-01T02:13:29;11.30;99.90
18934;DHT22;9599;53.706;10.384;2023-04-01T02:16:01;11.30;99.90
18934;DHT22;9599;53.706;10.384;2023-04-01T02:18:34;11.30;99.90
18934;DHT22;9599;53.706;10.384;2023-04-01T02:21:05;11.20;99.90
18934;DHT22;9599;53.706;10.384;2023-04-01T02:23:36;11.30;99.90
18934;DHT22;9599;53.706;10.384;2023-04-01T02:26:06;11.20;99.90
18934;DHT22;9599;53.706;10.384;2023-04-01T02:28:37;11.20;99.90
18934;DHT22;9599;53.706;10.384;2023-04-01T02:31:08;11.20;99.90
18934;DHT22;9599;53.706;10.384;2023-04-01T02:33:38;11.20;99.90
18934;DHT22;9599;53.706;10.384;2023-04-01T02:36:11;11.20;99.90
18934;DHT22;9599;53.706;10.384;2023-04-01T02:38:40;11.10;99.90
18934;DHT22;9599;53.706;10.384;2023-04-01T02:41:09;11.10;99.90
18934;DHT22;9599;53.706;10.384;2023-04-01T02:43:37;11.10;99.90
18934;DHT22;9599;53.706;10.384;2023-04-01T02:46:04;11.10;99.90
18934;DHT22;9599;53.706;10.384;2023-04-01T02:48:33;11.10;99.90
18934;DHT22;9599;53.706;10.384;2023-04-01T02:51:01;11.10;99.90
18934;DHT22;9599;53.706;10.384;2023-04-01T02:53:30;11.10;99.90
18934;DHT22;9599;53.706;10.384;2023-04-01T02:55:59;11.10;99.90
18934;DHT22;9599;53.706;10.384;2023-04-01T02:58:27;11.10;99.90
18934;DHT22;9599;53.706;10.384;2023-04-01T03:00:55;11.10;99.90
18934;DHT22;9599;53.706;10.384;2023-04-01T03:03:24;11.10;99.90
18934;DHT22;9599;53.706;10.384;2023-04-01T03:05:52;11.10;99.90
18934;DHT22;9599;53.706;10.384;2023-04-01T03:08:22;11.10;99.90
18934;DHT22;9599;53.706;10.384;2023-04-01T03:10:52;11.10;99.90
18934;DHT22;9599;53.706;10.384;2023-04-01T03:13:20;11.00;99.90
18934;DHT22;9599;53.706;10.384;2023-04-01T03:15:48;11.00;99.90
18934;DHT22;9599;53.706;10.384;2023-04-01T03:18:15;11.00;99.90
18934;DHT22;9599;53.706;10.384;2023-04-01T03:20:43;11.00;99.90
18934;DHT22;9599;53.706;10.384;2023-04-01T03:23:11;11.00;99.90
18934;DHT22;9599;53.706;10.384;2023-04-01T03:25:39;11.00;99.90
18934;DHT22;9599;53.706;10.384;2023-04-01T03:28:09;11.00;99.90
18934;DHT22;9599;53.706;10.384;2023-04-01T03:30:36;11.00;99.90
18934;DHT22;9599;53.706;10.384;2023-04-01T03:33:04;11.00;99.90
18934;DHT22;9599;53.706;10.384;2023-04-01T03:35:32;11.00;99.90
18934;DHT22;9599;53.706;10.384;2023-04-01T03:38:02;11.00;99.90
18934;DHT22;9599;53.706;10.384;2023-04-01T03:40:30;10.90;99.90
18934;DHT22;9599;53.706;10.384;2023-04-01T03:42:59;11.00;99.90
18934;DHT22;9599;53.706;10.384;2023-04-01T03:45:29;10.90;99.90
18934;DHT22;9599;53.706;10.384;2023-04-01T03:47:57;11.00;99.90
18934;DHT22;9599;53.706;10.384;2023-04-01T03:50:25;11.00;99.90
18934;DHT22;9599;53.706;10.384;2023-04-01T03:52:53;10.90;99.90
18934;DHT22;9599;53.706;10.384;2023-04-01T03:55:21;11.00;99.90
18934;DHT22;9599;53.706;10.384;2023-04-01T03:57:49;11.00;99.90
18934;DHT22;9599;53.706;10.384;2023-04-01T04:00:18;10.90;99.90
18934;DHT22;9599;53.706;10.384;2023-04-01T04:02:53;10.70;99.90
18934;DHT22;9599;53.706;10.384;2023-04-01T04:05:29;10.40;99.90
18934;DHT22;9599;53.706;10.384;2023-04-01T04:07:58;10.30;99.90
18934;DHT22;9599;53.706;10.384;2023-04-01T04:10:26;10.20;99.90
18934;DHT22;9599;53.706;10.384;2023-04-01T04:12:55;10.00;99.90
18934;DHT22;9599;53.706;10.384;2023-04-01T04:15:27;9.90;99.90
18934;DHT22;9599;53.706;10.384;2023-04-01T04:17:56;9.70;99.90
18934;DHT22;9599;53.706;10.384;2023-04-01T04:20:25;9.70;99.90
18934;DHT22;9599;53.706;10.384;2023-04-01T04:22:53;9.70;99.90
18934;DHT22;9599;53.706;10.384;2023-04-01T04:25:21;9.60;99.90
18934;DHT22;9599;53.706;10.384;2023-04-01T04:27:49;9.60;99.90
18934;DHT22;9599;53.706;10.384;2023-04-01T04:30:17;9.50;99.90
18934;DHT22;9599;53.706;10.384;2023-04-01T04:32:45;9.50;99.90
18934;DHT22;9599;53.706;10.384;2023-04-01T04:35:14;9.40;99.90
18934;DHT22;9599;53.706;10.384;2023-04-01T04:37:43;9.40;99.90
18934;DHT22;9599;53.706;10.384;2023-04-01T04:40:11;9.30;99.90
18934;DHT22;9599;53.706;10.384;2023-04-01T04:42:40;9.20;99.90
18934;DHT22;9599;53.706;10.384;2023-04-01T04:45:11;9.10;99.90
18934;DHT22;9599;53.706;10.384;2023-04-01T04:47:46;9.00;99.90
18934;DHT22;9599;53.706;10.384;2023-04-01T04:50:16;9.00;99.90
18934;DHT22;9599;53.706;10.384;2023-04-01T04:52:43;8.90;99.90
18934;DHT22;9599;53.706;10.384;2023-04-01T04:55:12;8.80;99.90
18934;DHT22;9599;53.706;10.384;2023-04-01T04:57:44;8.80;99.90
18934;DHT22;9599;53.706;10.384;2023-04-01T05:00:13;8.80;99.90
18934;DHT22;9599;53.706;10.384;2023-04-01T05:03:01;8.80;99.90
18934;DHT22;9599;53.706;10.384;2023-04-01T05:05:31;8.70;99.90
18934;DHT22;9599;53.706;10.384;2023-04-01T05:08:00;8.70;99.90
18934;DHT22;9599;53.706;10.384;2023-04-01T05:10:28;8.70;99.90
18934;DHT22;9599;53.706;10.384;2023-04-01T05:12:57;8.60;99.90
18934;DHT22;9599;53.706;10.384;2023-04-01T05:15:25;8.50;99.90
18934;DHT22;9599;53.706;10.384;2023-04-01T05:17:54;8.40;99.90
18934;DHT22;9599;53.706;10.384;2023-04-01T05:20:23;8.30;99.90
18934;DHT22;9599;53.706;10.384;2023-04-01T05:22:57;8.20;99.90
18934;DHT22;9599;53.706;10.384;2023-04-01T05:25:25;8.20;99.90
18934;DHT22;9599;53.706;10.384;2023-04-01T05:27:53;8.20;99.90
18934;DHT22;9599;53.706;10.384;2023-04-01T05:30:22;8.10;99.90
18934;DHT22;9599;53.706;10.384;2023-04-01T05:33:10;8.10;99.90
18934;DHT22;9599;53.706;10.384;2023-04-01T05:35:39;8.10;99.90
18934;DHT22;9599;53.706;10.384;2023-04-01T05:38:09;8.10;99.90
18934;DHT22;9599;53.706;10.384;2023-04-01T05:40:37;8.10;99.90
18934;DHT22;9599;53.706;10.384;2023-04-01T05:43:05;8.00;99.90
18934;DHT22;9599;53.706;10.384;2023-04-01T05:45:33;8.00;99.90
18934;DHT22;9599;53.706;10.384;2023-04-01T05:48:13;7.90;99.90
18934;DHT22;9599;53.706;10.384;2023-04-01T05:50:41;7.90;99.90
18934;DHT22;9599;53.706;10.384;2023-04-01T05:53:12;7.80;99.90
18934;DHT22;9599;53.706;10.384;2023-04-01T05:55:42;7.80;99.90
18934;DHT22;9599;53.706;10.384;2023-04-01T05:58:10;7.80;99.90
18934;DHT22;9599;53.706;10.384;2023-04-01T06:00:41;7.70;99.90
18934;DHT22;9599;53.706;10.384;2023-04-01T06:03:10;7.70;99.90
18934;DHT22;9599;53.706;10.384;2023-04-01T06:05:40;7.70;99.90
18934;DHT22;9599;53.706;10.384;2023-04-01T06:08:12;7.70;99.90
18934;DHT22;9599;53.706;10.384;2023-04-01T06:11:03;7.60;99.90
18934;DHT22;9599;53.706;10.384;2023-04-01T06:13:45;7.60;99.90
18934;DHT22;9599;53.706;10.384;2023-04-01T06:16:24;7.70;99.90
18934;DHT22;9599;53.706;10.384;2023-04-01T06:19:09;7.60;99.90
18934;DHT22;9599;53.706;10.384;2023-04-01T06:22:08;7.60;99.90
18934;DHT22;9599;53.706;10.384;2023-04-01T06:28:17;7.50;99.90
18934;DHT22;9599;53.706;10.384;2023-04-01T06:30:51;7.40;99.90
18934;DHT22;9599;53.706;10.384;2023-04-01T06:33:40;7.40;99.90
18934;DHT22;9599;53.706;10.384;2023-04-01T06:36:32;7.40;99.90
18934;DHT22;9599;53.706;10.384;2023-04-01T06:39:27;7.40;99.90
18934;DHT22;9599;53.706;10.384;2023-04-01T06:42:36;7.30;99.90
18934;DHT22;9599;53.706;10.384;2023-04-01T06:45:34;7.40;99.90
18934;DHT22;9599;53.706;10.384;2023-04-01T06:48:45;7.30;99.90
18934;DHT22;9599;53.706;10.384;2023-04-01T06:51:45;7.40;99.90
18934;DHT22;9599;53.706;10.384;2023-04-01T06:54:36;7.40;99.90
18934;DHT22;9599;53.706;10.384;2023-04-01T06:57:17;7.40;99.90
18934;DHT22;9599;53.706;10.384;2023-04-01T06:59:49;7.50;99.90
18934;DHT22;9599;53.706;10.384;2023-04-01T07:02:24;7.40;99.90
18934;DHT22;9599;53.706;10.384;2023-04-01T07:04:54;7.40;99.90
18934;DHT22;9599;53.706;10.384;2023-04-01T07:07:28;7.40;99.90
18934;DHT22;9599;53.706;10.384;2023-04-01T07:10:04;7.40;99.90
18934;DHT22;9599;53.706;10.384;2023-04-01T07:12:58;7.30;99.90
18934;DHT22;9599;53.706;10.384;2023-04-01T07:15:56;7.30;99.90
18934;DHT22;9599;53.706;10.384;2023-04-01T07:18:32;7.30;99.90
18934;DHT22;9599;53.706;10.384;2023-04-01T07:21:04;7.30;99.90
18934;DHT22;9599;53.706;10.384;2023-04-01T07:23:40;7.30;99.90
18934;DHT22;9599;53.706;10.384;2023-04-01T07:26:30;7.30;99.90
18934;DHT22;9599;53.706;10.384;2023-04-01T07:29:10;7.20;99.90
18934;DHT22;9599;53.706;10.384;2023-04-01T07:32:12;7.20;99.90
18934;DHT22;9599;53.706;10.384;2023-04-01T07:34:53;7.30;99.90
18934;DHT22;9599;53.706;10.384;2023-04-01T07:37:30;7.20;99.90
18934;DHT22;9599;53.706;10.384;2023-04-01T07:40:10;7.30;99.90
18934;DHT22;9599;53.706;10.384;2023-04-01T07:42:55;7.30;99.90
18934;DHT22;9599;53.706;10.384;2023-04-01T07:45:30;7.40;99.90
18934;DHT22;9599;53.706;10.384;2023-04-01T07:48:09;7.30;99.90
18934;DHT22;9599;53.706;10.384;2023-04-01T07:50:42;7.30;99.90
18934;DHT22;9599;53.706;10.384;2023-04-01T07:53:23;7.30;99.90
18934;DHT22;9599;53.706;10.384;2023-04-01T07:56:00;7.30;99.90
18934;DHT22;9599;53.706;10.384;2023-04-01T07:58:41;7.30;99.90
18934;DHT22;9599;53.706;10.384;2023-04-01T08:01:25;7.20;99.90
18934;DHT22;9599;53.706;10.384;2023-04-01T08:04:10;7.20;99.90
18934;DHT22;9599;53.706;10.384;2023-04-01T08:06:46;7.20;99.90
18934;DHT22;9599;53.706;10.384;2023-04-01T08:09:24;7.20;99.90
18934;DHT22;9599;53.706;10.384;2023-04-01T08:12:22;7.20;99.90
18934;DHT22;9599;53.706;10.384;2023-04-01T08:15:09;7.20;99.90
18934;DHT22;9599;53.706;10.384;2023-04-01T08:18:01;7.20;99.90
18934;DHT22;9599;53.706;10.384;2023-04-01T08:20:36;7.20;99.90
18934;DHT22;9599;53.706;10.384;2023-04-01T08:23:11;7.10;99.90
18934;DHT22;9599;53.706;10.384;2023-04-01T08:25:46;7.20;99.90
18934;DHT22;9599;53.706;10.384;2023-04-01T08:28:20;7.20;99.90
18934;DHT22;9599;53.706;10.384;2023-04-01T08:30:55;7.20;99.90
18934;DHT22;9599;53.706;10.384;2023-04-01T08:33:25;7.20;99.90
18934;DHT22;9599;53.706;10.384;2023-04-01T08:36:05;7.20;99.90
18934;DHT22;9599;53.706;10.384;2023-04-01T08:38:41;7.10;99.90
18934;DHT22;9599;53.706;10.384;2023-04-01T08:41:51;7.10;99.90
18934;DHT22;9599;53.706;10.384;2023-04-01T08:45:14;7.20;99.90
18934;DHT22;9599;53.706;10.384;2023-04-01T08:47:59;7.20;99.90
18934;DHT22;9599;53.706;10.384;2023-04-01T08:50:51;7.20;99.90
18934;DHT22;9599;53.706;10.384;2023-04-01T08:53:52;7.30;99.90
18934;DHT22;9599;53.706;10.384;2023-04-01T08:56:28;7.30;99.90
18934;DHT22;9599;53.706;10.384;2023-04-01T08:59:18;7.40;99.90
18934;DHT22;9599;53.706;10.384;2023-04-01T09:02:18;7.30;99.90
18934;DHT22;9599;53.706;10.384;2023-04-01T09:05:26;7.20;99.90
18934;DHT22;9599;53.706;10.384;2023-04-01T09:08:14;7.20;99.90
18934;DHT22;9599;53.706;10.384;2023-04-01T09:10:59;7.10;99.90
18934;DHT22;9599;53.706;10.384;2023-04-01T09:17:30;7.20;99.90
18934;DHT22;9599;53.706;10.384;2023-04-01T09:20:17;7.20;99.90
18934;DHT22;9599;53.706;10.384;2023-04-01T09:22:59;7.30;99.90
18934;DHT22;9599;53.706;10.384;2023-04-01T09:25:41;7.40;99.90
18934;DHT22;9599;53.706;10.384;2023-04-01T09:28:19;7.40;99.90
18934;DHT22;9599;53.706;10.384;2023-04-01T09:31:24;7.40;99.90
18934;DHT22;9599;53.706;10.384;2023-04-01T09:34:30;7.40;99.90
18934;DHT22;9599;53.706;10.384;2023-04-01T09:37:18;7.30;99.90
18934;DHT22;9599;53.706;10.384;2023-04-01T09:40:11;7.30;99.90
18934;DHT22;9599;53.706;10.384;2023-04-01T09:42:49;7.30;99.90
18934;DHT22;9599;53.706;10.384;2023-04-01T09:45:41;7.30;99.90
18934;DHT22;9599;53.706;10.384;2023-04-01T09:48:35;7.30;99.90
18934;DHT22;9599;53.706;10.384;2023-04-01T09:51:19;7.20;99.90
18934;DHT22;9599;53.706;10.384;2023-04-01T09:53:57;7.40;99.90
18934;DHT22;9599;53.706;10.384;2023-04-01T10:00:28;7.40;99.90
18934;DHT22;9599;53.706;10.384;2023-04-01T10:03:29;7.40;99.90
18934;DHT22;9599;53.706;10.384;2023-04-01T10:06:44;7.40;99.90
18934;DHT22;9599;53.706;10.384;2023-04-01T10:09:45;7.30;99.90
18934;DHT22;9599;53.706;10.384;2023-04-01T10:19:14;7.40;99.90
18934;DHT22;9599;53.706;10.384;2023-04-01T10:22:29;7.20;99.90
18934;DHT22;9599;53.706;10.384;2023-04-01T10:31:34;7.30;99.90
18934;DHT22;9599;53.706;10.384;2023-04-01T10:34:28;7.40;99.90
18934;DHT22;9599;53.706;10.384;2023-04-01T10:37:04;7.40;99.90
18934;DHT22;9599;53.706;10.384;2023-04-01T10:43:46;7.50;99.90
18934;DHT22;9599;53.706;10.384;2023-04-01T10:50:04;7.60;99.90
18934;DHT22;9599;53.706;10.384;2023-04-01T10:52:55;7.50;99.90
18934;DHT22;9599;53.706;10.384;2023-04-01T10:55:53;7.50;99.90
18934;DHT22;9599;53.706;10.384;2023-04-01T10:59:11;7.60;99.90
18934;DHT22;9599;53.706;10.384;2023-04-01T11:06:09;7.60;99.90
18934;DHT22;9599;53.706;10.384;2023-04-01T11:09:04;7.50;99.90
18934;DHT22;9599;53.706;10.384;2023-04-01T11:12:09;7.40;99.90
18934;DHT22;9599;53.706;10.384;2023-04-01T11:15:12;7.40;99.90
18934;DHT22;9599;53.706;10.384;2023-04-01T11:18:17;7.40;99.90
18934;DHT22;9599;53.706;10.384;2023-04-01T11:24:12;7.20;99.90
18934;DHT22;9599;53.706;10.384;2023-04-01T11:27:07;7.10;99.90
18934;DHT22;9599;53.706;10.384;2023-04-01T11:29:58;7.00;99.90
18934;DHT22;9599;53.706;10.384;2023-04-01T11:32:39;7.10;99.90
18934;DHT22;9599;53.706;10.384;2023-04-01T11:35:29;7.10;99.90
18934;DHT22;9599;53.706;10.384;2023-04-01T11:38:15;7.20;99.90
18934;DHT22;9599;53.706;10.384;2023-04-01T11:41:17;7.30;99.90
18934;DHT22;9599;53.706;10.384;2023-04-01T11:44:22;7.30;99.90
18934;DHT22;9599;53.706;10.384;2023-04-01T11:47:14;7.20;99.90
18934;DHT22;9599;53.706;10.384;2023-04-01T11:49:55;7.20;99.90
18934;DHT22;9599;53.706;10.384;2023-04-01T11:53:10;7.10;99.90
18934;DHT22;9599;53.706;10.384;2023-04-01T11:55:51;7.20;99.90
18934;DHT22;9599;53.706;10.384;2023-04-01T11:58:44;7.10;99.90
18934;DHT22;9599;53.706;10.384;2023-04-01T12:01:27;7.10;99.90
18934;DHT22;9599;53.706;10.384;2023-04-01T12:07:03;7.20;99.90
18934;DHT22;9599;53.706;10.384;2023-04-01T12:09:39;7.30;99.90
18934;DHT22;9599;53.706;10.384;2023-04-01T12:12:17;7.30;99.90
18934;DHT22;9599;53.706;10.384;2023-04-01T12:14:58;7.30;99.90
18934;DHT22;9599;53.706;10.384;2023-04-01T12:17:32;7.40;99.90
18934;DHT22;9599;53.706;10.384;2023-04-01T12:20:20;7.30;99.90
18934;DHT22;9599;53.706;10.384;2023-04-01T12:22:58;7.30;99.90
18934;DHT22;9599;53.706;10.384;2023-04-01T12:26:08;7.20;99.90
18934;DHT22;9599;53.706;10.384;2023-04-01T12:28:48;7.20;99.90
18934;DHT22;9599;53.706;10.384;2023-04-01T12:31:29;7.30;99.90
18934;DHT22;9599;53.706;10.384;2023-04-01T12:34:29;7.20;99.90
18934;DHT22;9599;53.706;10.384;2023-04-01T12:37:07;7.00;99.90
18934;DHT22;9599;53.706;10.384;2023-04-01T12:39:51;6.90;99.90
18934;DHT22;9599;53.706;10.384;2023-04-01T12:42:41;6.80;99.90
18934;DHT22;9599;53.706;10.384;2023-04-01T12:45:35;6.80;99.90
18934;DHT22;9599;53.706;10.384;2023-04-01T12:48:27;6.90;99.90
18934;DHT22;9599;53.706;10.384;2023-04-01T12:51:18;7.00;99.90
18934;DHT22;9599;53.706;10.384;2023-04-01T12:57:00;7.10;99.90
18934;DHT22;9599;53.706;10.384;2023-04-01T12:59:48;7.20;99.90
18934;DHT22;9599;53.706;10.384;2023-04-01T13:02:30;7.10;99.90
18934;DHT22;9599;53.706;10.384;2023-04-01T13:05:31;7.00;99.90
18934;DHT22;9599;53.706;10.384;2023-04-01T13:08:17;7.00;99.90
18934;DHT22;9599;53.706;10.384;2023-04-01T13:11:08;6.90;99.90
18934;DHT22;9599;53.706;10.384;2023-04-01T13:16:40;6.90;99.90
18934;DHT22;9599;53.706;10.384;2023-04-01T13:19:14;7.00;99.90
18934;DHT22;9599;53.706;10.384;2023-04-01T13:21:53;7.00;99.90
18934;DHT22;9599;53.706;10.384;2023-04-01T13:24:31;7.00;99.90
18934;DHT22;9599;53.706;10.384;2023-04-01T13:27:09;7.00;99.90
18934;DHT22;9599;53.706;10.384;2023-04-01T13:29:43;7.00;99.90
18934;DHT22;9599;53.706;10.384;2023-04-01T13:32:20;7.00;99.90
18934;DHT22;9599;53.706;10.384;2023-04-01T13:35:20;6.90;99.90
18934;DHT22;9599;53.706;10.384;2023-04-01T13:38:04;6.60;99.90
18934;DHT22;9599;53.706;10.384;2023-04-01T13:40:46;6.60;99.90
18934;DHT22;9599;53.706;10.384;2023-04-01T13:43:32;6.60;99.90
18934;DHT22;9599;53.706;10.384;2023-04-01T13:46:16;6.60;99.90
18934;DHT22;9599;53.706;10.384;2023-04-01T13:49:02;6.60;99.90
18934;DHT22;9599;53.706;10.384;2023-04-01T13:52:08;6.60;99.90
18934;DHT22;9599;53.706;10.384;2023-04-01T13:54:58;6.70;99.90
18934;DHT22;9599;53.706;10.384;2023-04-01T13:57:43;6.80;99.90
18934;DHT22;9599;53.706;10.384;2023-04-01T14:00:23;6.80;99.90
18934;DHT22;9599;53.706;10.384;2023-04-01T14:03:04;6.80;99.90
18934;DHT22;9599;53.706;10.384;2023-04-01T14:05:50;6.70;99.90
18934;DHT22;9599;53.706;10.384;2023-04-01T14:08:29;6.60;99.90
18934;DHT22;9599;53.706;10.384;2023-04-01T14:11:13;6.50;99.90
18934;DHT22;9599;53.706;10.384;2023-04-01T14:13:52;6.50;99.90
18934;DHT22;9599;53.706;10.384;2023-04-01T14:22:30;6.50;99.90
18934;DHT22;9599;53.706;10.384;2023-04-01T14:25:23;6.40;99.90
18934;DHT22;9599;53.706;10.384;2023-04-01T14:28:12;6.40;99.90
18934;DHT22;9599;53.706;10.384;2023-04-01T14:31:04;6.40;99.90
18934;DHT22;9599;53.706;10.384;2023-04-01T14:33:42;6.30;99.90
18934;DHT22;9599;53.706;10.384;2023-04-01T14:36:30;6.40;99.90
18934;DHT22;9599;53.706;10.384;2023-04-01T14:39:09;6.40;99.90
18934;DHT22;9599;53.706;10.384;2023-04-01T14:41:47;6.30;99.90
18934;DHT22;9599;53.706;10.384;2023-04-01T14:44:29;6.30;99.90
18934;DHT22;9599;53.706;10.384;2023-04-01T14:47:21;6.30;99.90
18934;DHT22;9599;53.706;10.384;2023-04-01T14:49:55;6.30;99.90
18934;DHT22;9599;53.706;10.384;2023-04-01T14:52:32;6.40;99.90
18934;DHT22;9599;53.706;10.384;2023-04-01T14:55:01;6.40;99.90
18934;DHT22;9599;53.706;10.384;2023-04-01T14:57:38;6.40;99.90
18934;DHT22;9599;53.706;10.384;2023-04-01T15:00:14;6.50;99.90
18934;DHT22;9599;53.706;10.384;2023-04-01T15:02:50;6.40;99.90
18934;DHT22;9599;53.706;10.384;2023-04-01T15:05:36;6.30;99.90
18934;DHT22;9599;53.706;10.384;2023-04-01T15:08:11;6.30;99.90
18934;DHT22;9599;53.706;10.384;2023-04-01T15:10:59;6.30;99.90
18934;DHT22;9599;53.706;10.384;2023-04-01T15:13:53;6.30;99.90
18934;DHT22;9599;53.706;10.384;2023-04-01T15:16:27;6.20;99.90
18934;DHT22;9599;53.706;10.384;2023-04-01T15:19:06;6.20;99.90
18934;DHT22;9599;53.706;10.384;2023-04-01T15:21:52;6.10;99.90
18934;DHT22;9599;53.706;10.384;2023-04-01T15:24:25;6.00;99.90
18934;DHT22;9599;53.706;10.384;2023-04-01T15:27:11;6.00;99.90
18934;DHT22;9599;53.706;10.384;2023-04-01T15:35:46;6.00;99.90
18934;DHT22;9599;53.706;10.384;2023-04-01T15:38:25;6.00;99.90
18934;DHT22;9599;53.706;10.384;2023-04-01T15:41:02;6.00;99.90
18934;DHT22;9599;53.706;10.384;2023-04-01T15:43:40;6.00;99.90
18934;DHT22;9599;53.706;10.384;2023-04-01T15:46:39;5.90;99.90
18934;DHT22;9599;53.706;10.384;2023-04-01T15:49:19;5.90;99.90
18934;DHT22;9599;53.706;10.384;2023-04-01T15:51:58;5.90;99.90
18934;DHT22;9599;53.706;10.384;2023-04-01T15:54:56;5.90;99.90
18934;DHT22;9599;53.706;10.384;2023-04-01T15:57:29;6.00;99.90
18934;DHT22;9599;53.706;10.384;2023-04-01T16:00:21;5.90;99.90
18934;DHT22;9599;53.706;10.384;2023-04-01T16:02:55;5.80;99.90
18934;DHT22;9599;53.706;10.384;2023-04-01T16:05:39;5.80;99.90
18934;DHT22;9599;53.706;10.384;2023-04-01T16:08:47;5.90;99.90
18934;DHT22;9599;53.706;10.384;2023-04-01T16:11:23;5.80;99.90
18934;DHT22;9599;53.706;10.384;2023-04-01T16:14:10;5.70;99.90
18934;DHT22;9599;53.706;10.384;2023-04-01T16:16:53;5.70;99.90
18934;DHT22;9599;53.706;10.384;2023-04-01T16:19:33;5.60;99.90
18934;DHT22;9599;53.706;10.384;2023-04-01T16:22:08;5.70;99.90
18934;DHT22;9599;53.706;10.384;2023-04-01T16:24:42;5.60;99.90
18934;DHT22;9599;53.706;10.384;2023-04-01T16:27:14;5.60;99.90
18934;DHT22;9599;53.706;10.384;2023-04-01T16:29:47;5.60;99.90
18934;DHT22;9599;53.706;10.384;2023-04-01T16:32:36;5.50;99.90
18934;DHT22;9599;53.706;10.384;2023-04-01T16:35:28;5.50;99.90
18934;DHT22;9599;53.706;10.384;2023-04-01T16:38:05;5.50;99.90
18934;DHT22;9599;53.706;10.384;2023-04-01T16:40:42;5.50;99.90
18934;DHT22;9599;53.706;10.384;2023-04-01T16:43:19;5.50;99.90
18934;DHT22;9599;53.706;10.384;2023-04-01T16:48:59;5.50;99.90
18934;DHT22;9599;53.706;10.384;2023-04-01T16:51:36;5.50;99.90
18934;DHT22;9599;53.706;10.384;2023-04-01T16:54:13;5.50;99.90
18934;DHT22;9599;53.706;10.384;2023-04-01T16:56:46;5.40;99.90
18934;DHT22;9599;53.706;10.384;2023-04-01T16:59:19;5.50;99.90
18934;DHT22;9599;53.706;10.384;2023-04-01T17:01:53;5.40;99.90
18934;DHT22;9599;53.706;10.384;2023-04-01T17:04:30;5.40;99.90
18934;DHT22;9599;53.706;10.384;2023-04-01T17:07:10;5.40;99.90
18934;DHT22;9599;53.706;10.384;2023-04-01T17:09:50;5.40;99.90
18934;DHT22;9599;53.706;10.384;2023-04-01T17:12:24;5.40;99.90
18934;DHT22;9599;53.706;10.384;2023-04-01T17:15:00;5.40;99.90
18934;DHT22;9599;53.706;10.384;2023-04-01T17:17:42;5.40;99.90
18934;DHT22;9599;53.706;10.384;2023-04-01T17:20:31;5.40;99.90
18934;DHT22;9599;53.706;10.384;2023-04-01T17:23:08;5.30;99.90
18934;DHT22;9599;53.706;10.384;2023-04-01T17:25:52;5.30;99.90
18934;DHT22;9599;53.706;10.384;2023-04-01T17:28:36;5.30;99.90
18934;DHT22;9599;53.706;10.384;2023-04-01T17:31:15;5.40;99.90
18934;DHT22;9599;53.706;10.384;2023-04-01T17:34:02;5.40;99.90
18934;DHT22;9599;53.706;10.384;2023-04-01T17:36:40;5.30;99.90
18934;DHT22;9599;53.706;10.384;2023-04-01T17:39:31;5.30;99.90
18934;DHT22;9599;53.706;10.384;2023-04-01T17:42:07;5.30;99.90
18934;DHT22;9599;53.706;10.384;2023-04-01T17:44:56;5.20;99.90
18934;DHT22;9599;53.706;10.384;2023-04-01T17:47:34;5.20;99.90
18934;DHT22;9599;53.706;10.384;2023-04-01T17:50:14;5.30;99.90
18934;DHT22;9599;53.706;10.384;2023-04-01T17:52:52;5.30;99.90
18934;DHT22;9599;53.706;10.384;2023-04-01T17:58:29;5.20;99.90
18934;DHT22;9599;53.706;10.384;2023-04-01T18:01:12;5.20;99.90
18934;DHT22;9599;53.706;10.384;2023-04-01T18:03:55;5.10;99.90
18934;DHT22;9599;53.706;10.384;2023-04-01T18:06:34;5.10;99.90